Bonifay, FL

2:45 PM CDT on July 25, 2014 (GMT -0500)
Cairns Army Air Field (KOZR) Elev 299 ft | 31.28 °N, 85.71 °W | Change Station

Current weather conditions updated 47 minutes ago

Scattered Clouds
Scattered Clouds
84 °F
Feels Like 91 °F
N
10
Wind Variable Wind from South
Gusts 22 mph

Today is forecast to be nearly the same temperature as yesterday. Scattered thunderstorms.

Today
High -- | Low -- °F
--% Chance of Precip.
Yesterday
High -- | Low -- °F
Precip. -- in
5:55 AM 7:42 PM
Waning Crescent, 1% visible
Pressure 30.01 in
Visibility 10.0 miles
Clouds Few 2500 ft
Scattered Clouds 14000 ft
Heat Index 91 °F
Dew Point 74 °F
Humidity 73%
Rainfall 0.00 in
Snow Depth Not available.
UV 10 out of 12
Pollen 3.40 out of 12
Air Quality Not available.
Flu Activity Not available.
METAR KOZR 251858Z AUTO 17009G19KT 10SM FEW025 SCT140 29/23 A3001 RMK AO2 LTG DSNT S SLP162 T02870234

More Conditions Fewer Conditions

Pressure 30.01 in
Visibility 10.0 miles
Clouds Few 2500 ft
Scattered Clouds 14000 ft
Heat Index 91 °F
Dew Point 74 °F
Humidity 73%
Rainfall 0.00 in
Snow Depth Not available.
UV 10 out of 12
Pollen 3.40 out of 12
Air Quality Not available.
Flu Activity Not available.
METAR KOZR 251858Z AUTO 17009G19KT 10SM FEW025 SCT140 29/23 A3001 RMK AO2 LTG DSNT S SLP162 T02870234

More Conditions Fewer Conditions

10-Day Weather Forecast

Almanac

Astronomy

Jul. 25, 2014 Rise Set
Actual Time 5:55 AM CDT 7:42 PM CDT
Civil Twilight 5:29 AM CDT 8:08 PM CDT
Nautical Twilight 4:57 AM CDT 8:40 PM CDT
Astronomical Twilight 4:23 AM CDT 9:14 PM CDT
Moon 4:52 AM CDT 6:42 PM CDT
Length of Visible Light 14h 39m
Length of Day
13h 46m
Tomorrow will be 1m 14s shorter.
Waning Crescent, 1% of the Moon is Illuminated
Today
Waning Crescent
Jul 26
New
Aug 3
First Quarter
Aug 10
Full
Aug 17
Last Quarter

Today's Extremes

State Highs State Lows

Community

WunderPhotos

Upload Photos

1,737,393 photos uploaded!

Nearby

Snow Depth

Station Depth Elevation
No new snow has been reported.

Earthquake Activity

City Distance Mag. Time & Date
No recent earthquake activity has been reported nearby.
Minimum magnitude displayed is 2.5.

Coastal Water Temperatures

Place Temperature
No Stations Reporting

Nearby Weather Stations

Station Location Temp. Heat Index Dew Point Humidity Wind Precip. Elev Updated Type
APRSWXNET Bonifay FL , Caryville, FL 74 °F 71 °F 73 °F 96% WSW  at  2 mph 1.01 in / hr 144 ft 2:10 PM CDT MADIS
Bob's Backyard Weather, Bonifay, FL 74.6 °F 72 °F 74 °F 97% East  at  0.0 mph 1.23 in / hr 131 ft 3:30 PM EDT Normal
County Rd. 85, Hartford, AL 84.7 °F 89 °F 70 °F 62% SSE  at  3.1 mph 0.00 in / hr 290 ft 2:45 PM CDT Rapid Fire

Show More Stations Show Fewer Stations